Time;durP1;ratioP1;P1;durP2;ratioP2;P2;SDS_P1;SDS_P2;PMS_P1;PMS_P2;Temp;Humidity;BMP_temperature;BMP_pressure;BME280_temperature;BME280_humidity;BME280_pressure;Samples;Min_cycle;Max_cycle;Signal;HPM_P1;HPM_P2
2023/11/07 00:01:51;;;;;;;10.83;3.80;;;;;;;;;;5042281;28;20022;-69
2023/11/07 00:04:17;;;;;;;8.17;3.40;;;;;;;;;;5039759;28;20069;-68
2023/11/07 00:06:42;;;;;;;10.47;3.67;;;;;;;;;;5037805;28;20338;-69
2023/11/07 00:09:08;;;;;;;8.17;3.50;;;;;;;;;;5042236;28;20056;-68
2023/11/07 00:11:33;;;;;;;11.47;3.57;;;;;;;;;;5045253;28;20029;-69
2023/11/07 00:13:59;;;;;;;12.57;3.80;;;;;;;;;;5045071;28;20086;-68
2023/11/07 00:16:26;;;;;;;15.00;4.10;;;;;;;;;;5038170;28;20057;-69
2023/11/07 00:18:52;;;;;;;12.60;4.00;;;;;;;;;;5044805;28;20082;-68
2023/11/07 00:21:17;;;;;;;7.63;3.37;;;;;;;;;;5034485;28;20453;-68
2023/11/07 00:23:42;;;;;;;11.87;3.70;;;;;;;;;;5044766;28;20031;-69
2023/11/07 00:26:07;;;;;;;13.37;3.87;;;;;;;;;;5043704;28;20408;-68
2023/11/07 00:28:33;;;;;;;8.90;3.50;;;;;;;;;;5041949;28;20028;-69
2023/11/07 00:30:58;;;;;;;9.27;3.70;;;;;;;;;;5044252;28;20029;-69
2023/11/07 00:33:23;;;;;;;14.30;4.00;;;;;;;;;;5042301;28;20021;-68
2023/11/07 00:35:48;;;;;;;9.57;3.60;;;;;;;;;;5039889;28;20029;-68
2023/11/07 00:38:14;;;;;;;8.77;3.70;;;;;;;;;;5044161;28;20096;-65
2023/11/07 00:40:39;;;;;;;11.93;4.20;;;;;;;;;;5043486;28;20017;-68
2023/11/07 00:43:04;;;;;;;13.37;3.57;;;;;;;;;;5040062;28;20462;-69
2023/11/07 00:45:30;;;;;;;11.17;3.70;;;;;;;;;;5038949;28;20029;-69
2023/11/07 00:47:56;;;;;;;11.23;3.60;;;;;;;;;;5037686;28;20021;-68
2023/11/07 00:50:22;;;;;;;11.80;4.43;;;;;;;;;;5026379;28;20493;-67
2023/11/07 00:52:47;;;;;;;9.73;3.53;;;;;;;;;;5037675;28;20033;-68
2023/11/07 00:55:13;;;;;;;13.03;3.83;;;;;;;;;;5041128;28;20089;-69
2023/11/07 00:57:38;;;;;;;11.13;4.10;;;;;;;;;;5040176;28;20101;-67
2023/11/07 01:00:04;;;;;;;13.93;4.00;;;;;;;;;;5041266;28;20055;-69
2023/11/07 01:02:29;;;;;;;11.43;3.93;;;;;;;;;;5036568;28;20469;-69
2023/11/07 01:04:55;;;;;;;10.47;3.73;;;;;;;;;;5034459;28;20132;-69
2023/11/07 01:07:20;;;;;;;12.23;3.93;;;;;;;;;;5042602;28;20024;-69
2023/11/07 01:09:45;;;;;;;12.87;4.10;;;;;;;;;;5041347;28;20033;-69
2023/11/07 01:12:10;;;;;;;24.07;4.77;;;;;;;;;;5044333;28;20096;-70
2023/11/07 01:14:36;;;;;;;10.17;3.90;;;;;;;;;;5038011;28;20386;-67
2023/11/07 01:17:01;;;;;;;9.77;4.27;;;;;;;;;;5044252;28;20028;-69
2023/11/07 01:19:27;;;;;;;11.20;4.03;;;;;;;;;;5043987;28;20052;-69
2023/11/07 01:21:52;;;;;;;11.17;3.67;;;;;;;;;;5043906;28;20401;-69
2023/11/07 01:24:17;;;;;;;14.57;4.40;;;;;;;;;;5040773;28;20446;-69
2023/11/07 01:26:43;;;;;;;11.60;3.17;;;;;;;;;;5041299;28;20428;-67
2023/11/07 01:29:08;;;;;;;16.30;4.80;;;;;;;;;;5042207;28;20029;-69
2023/11/07 01:31:33;;;;;;;12.97;4.30;;;;;;;;;;5034464;28;20029;-69
2023/11/07 01:33:59;;;;;;;12.13;4.20;;;;;;;;;;5043288;28;20025;-69
2023/11/07 01:36:24;;;;;;;12.17;4.57;;;;;;;;;;5040078;28;20035;-71
2023/11/07 01:38:49;;;;;;;11.00;4.30;;;;;;;;;;5043727;28;20021;-70
2023/11/07 01:41:15;;;;;;;14.30;4.60;;;;;;;;;;5034368;28;20432;-71
2023/11/07 01:43:40;;;;;;;13.20;4.73;;;;;;;;;;5038119;28;20432;-71
2023/11/07 01:46:05;;;;;;;11.93;4.17;;;;;;;;;;5039939;28;20417;-71
2023/11/07 01:48:31;;;;;;;12.20;4.43;;;;;;;;;;5042999;28;20021;-70
2023/11/07 01:50:56;;;;;;;11.83;4.10;;;;;;;;;;5040472;28;20017;-71
2023/11/07 01:53:21;;;;;;;14.13;4.20;;;;;;;;;;5038842;28;20033;-70
2023/11/07 01:55:47;;;;;;;11.07;4.13;;;;;;;;;;5038309;28;20607;-68
2023/11/07 01:58:12;;;;;;;10.30;3.87;;;;;;;;;;5040836;28;20067;-71
2023/11/07 02:00:39;;;;;;;11.03;5.37;;;;;;;;;;5037740;28;20024;-70
2023/11/07 02:03:05;;;;;;;17.50;5.00;;;;;;;;;;5036256;28;20116;-71
2023/11/07 02:05:30;;;;;;;14.07;4.73;;;;;;;;;;5038038;28;20111;-69
2023/11/07 02:07:56;;;;;;;10.60;3.83;;;;;;;;;;5037938;28;20036;-71
2023/11/07 02:10:21;;;;;;;14.07;4.47;;;;;;;;;;5038005;28;20017;-71
2023/11/07 02:12:47;;;;;;;14.53;4.97;;;;;;;;;;5040842;28;20045;-69
2023/11/07 02:15:22;;;;;;;12.53;4.33;;;;;;;;;;5038746;28;20068;-71
2023/11/07 02:17:47;;;;;;;13.33;4.57;;;;;;;;;;5040020;28;20025;-69
2023/11/07 02:20:12;;;;;;;10.63;3.93;;;;;;;;;;5022615;28;20132;-68
2023/11/07 02:22:39;;;;;;;11.50;4.53;;;;;;;;;;5039801;28;20071;-70
2023/11/07 02:25:05;;;;;;;11.43;4.40;;;;;;;;;;5039218;28;20493;-69
2023/11/07 02:27:30;;;;;;;14.20;4.70;;;;;;;;;;5041978;28;20473;-69
2023/11/07 02:29:56;;;;;;;12.93;4.30;;;;;;;;;;5041723;28;20104;-70
2023/11/07 02:32:21;;;;;;;9.60;3.90;;;;;;;;;;5041593;28;20083;-70
2023/11/07 02:34:46;;;;;;;12.57;4.50;;;;;;;;;;5037819;28;20017;-69
2023/11/07 02:37:12;;;;;;;15.67;4.70;;;;;;;;;;5039663;28;20021;-66
2023/11/07 02:39:37;;;;;;;13.90;4.30;;;;;;;;;;5035276;28;20047;-67
2023/11/07 02:42:02;;;;;;;14.33;4.17;;;;;;;;;;5041829;28;20389;-67
2023/11/07 02:44:28;;;;;;;13.40;4.50;;;;;;;;;;5041529;28;20436;-67
2023/11/07 02:46:53;;;;;;;15.03;4.67;;;;;;;;;;5041442;28;20024;-67
2023/11/07 02:49:18;;;;;;;9.73;4.90;;;;;;;;;;5040415;28;20025;-67
2023/11/07 02:51:43;;;;;;;11.87;4.60;;;;;;;;;;5031292;28;20020;-67
2023/11/07 02:54:09;;;;;;;14.90;4.87;;;;;;;;;;5035054;28;20031;-68
2023/11/07 02:56:34;;;;;;;9.63;4.17;;;;;;;;;;5042159;28;20105;-68
2023/11/07 02:58:59;;;;;;;11.60;3.93;;;;;;;;;;5039547;28;20013;-67
2023/11/07 03:01:25;;;;;;;10.87;3.83;;;;;;;;;;5039863;28;20024;-67
2023/11/07 03:03:50;;;;;;;8.83;3.50;;;;;;;;;;5033273;28;20038;-68
2023/11/07 03:06:16;;;;;;;12.13;4.20;;;;;;;;;;5035764;28;20499;-67
2023/11/07 03:08:41;;;;;;;12.73;4.40;;;;;;;;;;5020490;28;20021;-67
2023/11/07 03:11:07;;;;;;;11.10;3.90;;;;;;;;;;5037130;28;20029;-67
2023/11/07 03:13:34;;;;;;;10.73;4.27;;;;;;;;;;5038105;28;20102;-67
2023/11/07 03:15:59;;;;;;;9.87;3.70;;;;;;;;;;5041753;28;20694;-67
2023/11/07 03:18:25;;;;;;;12.57;4.47;;;;;;;;;;5038001;28;20126;-66
2023/11/07 03:20:50;;;;;;;11.00;4.30;;;;;;;;;;5038753;28;20017;-67
2023/11/07 03:23:15;;;;;;;12.30;4.03;;;;;;;;;;5040786;28;20028;-67
2023/11/07 03:25:40;;;;;;;10.67;3.80;;;;;;;;;;5041739;28;20032;-65
2023/11/07 03:28:05;;;;;;;11.43;4.83;;;;;;;;;;5040346;28;20290;-68
2023/11/07 03:30:31;;;;;;;10.90;3.87;;;;;;;;;;5040164;28;20473;-67
2023/11/07 03:32:56;;;;;;;16.47;4.00;;;;;;;;;;5038180;28;20116;-65
2023/11/07 03:35:23;;;;;;;11.67;4.23;;;;;;;;;;5039850;28;20028;-65
2023/11/07 03:37:48;;;;;;;13.60;4.30;;;;;;;;;;5038287;28;20075;-65
2023/11/07 03:40:13;;;;;;;13.27;4.10;;;;;;;;;;5039639;28;20459;-64
2023/11/07 03:42:39;;;;;;;8.83;3.80;;;;;;;;;;5041174;28;20014;-67
2023/11/07 03:45:05;;;;;;;8.70;3.87;;;;;;;;;;5041517;28;20478;-65
2023/11/07 03:47:30;;;;;;;11.93;3.83;;;;;;;;;;5038479;28;20029;-65
2023/11/07 03:49:56;;;;;;;10.33;4.50;;;;;;;;;;5035605;28;20036;-65
2023/11/07 03:52:21;;;;;;;9.37;4.37;;;;;;;;;;5043137;28;20108;-65
2023/11/07 03:54:46;;;;;;;17.33;5.23;;;;;;;;;;5041251;28;20519;-67
2023/11/07 03:57:12;;;;;;;8.90;3.60;;;;;;;;;;5040202;28;20449;-66
2023/11/07 03:59:37;;;;;;;10.97;3.87;;;;;;;;;;5037121;28;20018;-65
2023/11/07 04:02:04;;;;;;;12.40;4.40;;;;;;;;;;5031349;28;20030;-66
2023/11/07 04:04:30;;;;;;;17.33;4.20;;;;;;;;;;5032038;28;20052;-63
2023/11/07 04:06:55;;;;;;;12.90;4.00;;;;;;;;;;5024502;28;20033;-65
2023/11/07 04:09:21;;;;;;;7.80;3.33;;;;;;;;;;5039383;28;20029;-63
2023/11/07 04:11:46;;;;;;;9.40;4.07;;;;;;;;;;5038947;28;20033;-66
2023/11/07 04:14:11;;;;;;;10.87;3.57;;;;;;;;;;5035489;28;20032;-65
2023/11/07 04:16:38;;;;;;;10.07;4.03;;;;;;;;;;5039537;28;20099;-66
2023/11/07 04:19:03;;;;;;;14.70;4.83;;;;;;;;;;5036549;28;20106;-65
2023/11/07 04:21:29;;;;;;;12.20;4.17;;;;;;;;;;5029360;28;20390;-65
2023/11/07 04:23:54;;;;;;;10.67;4.20;;;;;;;;;;5031706;28;20021;-63
2023/11/07 04:26:19;;;;;;;11.40;3.60;;;;;;;;;;5040478;28;20405;-64
2023/11/07 04:28:45;;;;;;;11.17;3.90;;;;;;;;;;5042087;28;20064;-66
2023/11/07 04:31:10;;;;;;;9.80;3.33;;;;;;;;;;5039294;28;20021;-65
2023/11/07 04:33:36;;;;;;;12.27;3.70;;;;;;;;;;5033158;28;20026;-65
2023/11/07 04:36:01;;;;;;;8.73;4.00;;;;;;;;;;5039153;28;20037;-65
2023/11/07 04:38:27;;;;;;;10.20;4.07;;;;;;;;;;5034781;28;20028;-64
2023/11/07 04:40:52;;;;;;;11.10;3.97;;;;;;;;;;5044016;28;20086;-64
2023/11/07 04:43:17;;;;;;;9.97;4.10;;;;;;;;;;5044025;28;20025;-67
2023/11/07 04:45:43;;;;;;;13.70;4.37;;;;;;;;;;5040636;28;20070;-66
2023/11/07 04:48:10;;;;;;;13.63;4.10;;;;;;;;;;5039733;28;20040;-67
2023/11/07 04:50:36;;;;;;;12.87;4.30;;;;;;;;;;5044422;28;20056;-67
2023/11/07 04:53:04;;;;;;;9.63;3.90;;;;;;;;;;5037556;28;20431;-66
2023/11/07 04:55:29;;;;;;;13.43;4.30;;;;;;;;;;5048463;28;20566;-65
2023/11/07 04:57:54;;;;;;;14.60;4.33;;;;;;;;;;5031935;28;20029;-66
2023/11/07 05:00:20;;;;;;;13.13;4.00;;;;;;;;;;5039754;28;20089;-67
2023/11/07 05:02:46;;;;;;;10.97;4.30;;;;;;;;;;5045700;28;20027;-67
2023/11/07 05:05:11;;;;;;;14.30;4.90;;;;;;;;;;5026443;28;20453;-66
2023/11/07 05:07:37;;;;;;;12.87;5.50;;;;;;;;;;5037277;28;20033;-67
2023/11/07 05:10:04;;;;;;;12.97;4.27;;;;;;;;;;5029393;28;20013;-67
2023/11/07 05:12:29;;;;;;;13.47;5.67;;;;;;;;;;5037193;28;20165;-67
2023/11/07 05:14:54;;;;;;;11.03;4.90;;;;;;;;;;5043087;28;20100;-67
2023/11/07 05:17:20;;;;;;;10.33;5.10;;;;;;;;;;5041959;28;20040;-68
2023/11/07 05:19:46;;;;;;;12.07;5.00;;;;;;;;;;5040025;28;20021;-67
2023/11/07 05:22:11;;;;;;;17.23;6.10;;;;;;;;;;5036200;28;20083;-68
2023/11/07 05:24:36;;;;;;;11.80;4.47;;;;;;;;;;5044533;28;20120;-66
2023/11/07 05:27:01;;;;;;;14.97;5.67;;;;;;;;;;5043857;28;20017;-68
2023/11/07 05:29:27;;;;;;;14.57;5.70;;;;;;;;;;5040594;28;20315;-68
2023/11/07 05:31:52;;;;;;;14.47;5.93;;;;;;;;;;5042535;28;20017;-68
2023/11/07 05:34:17;;;;;;;13.77;6.10;;;;;;;;;;5041102;28;20040;-68
2023/11/07 05:36:43;;;;;;;17.67;6.80;;;;;;;;;;5040830;28;20028;-67
2023/11/07 05:39:08;;;;;;;14.10;6.13;;;;;;;;;;5039304;28;20382;-67
2023/11/07 05:41:33;;;;;;;17.50;6.30;;;;;;;;;;5038023;28;20017;-67
2023/11/07 05:43:59;;;;;;;12.60;5.90;;;;;;;;;;5045904;28;20052;-68
2023/11/07 05:46:24;;;;;;;14.80;6.50;;;;;;;;;;5045458;28;20111;-68
2023/11/07 05:48:52;;;;;;;17.83;5.83;;;;;;;;;;5041184;28;20572;-64
2023/11/07 05:51:23;;;;;;;14.43;6.73;;;;;;;;;;5041697;28;20033;-66
2023/11/07 05:53:50;;;;;;;21.45;6.95;;;;;;;;;;5044190;28;20023;-67
2023/11/07 05:56:15;;;;;;;16.30;7.30;;;;;;;;;;5036506;28;20287;-68
2023/11/07 05:58:40;;;;;;;15.30;6.60;;;;;;;;;;5040555;28;20235;-67
2023/11/07 06:01:05;;;;;;;13.47;7.13;;;;;;;;;;5043221;28;20017;-68
2023/11/07 06:03:31;;;;;;;16.73;7.10;;;;;;;;;;5040096;28;20070;-68
2023/11/07 06:05:56;;;;;;;17.17;6.93;;;;;;;;;;5025231;28;20505;-68
2023/11/07 06:08:21;;;;;;;15.20;6.53;;;;;;;;;;5014058;28;20395;-67
2023/11/07 06:10:47;;;;;;;12.57;6.40;;;;;;;;;;5019054;28;20081;-67
2023/11/07 06:13:12;;;;;;;13.83;6.37;;;;;;;;;;5024272;28;20021;-68
2023/11/07 06:15:38;;;;;;;13.40;6.53;;;;;;;;;;5024801;28;20013;-68
2023/11/07 06:18:03;;;;;;;11.30;5.50;;;;;;;;;;5017144;28;20022;-68
2023/11/07 06:20:28;;;;;;;14.33;6.57;;;;;;;;;;5013936;28;20060;-68
2023/11/07 06:22:54;;;;;;;14.43;6.23;;;;;;;;;;5024629;28;20014;-68
2023/11/07 06:25:20;;;;;;;16.30;7.27;;;;;;;;;;5021528;28;20030;-65
2023/11/07 06:27:47;;;;;;;11.83;5.80;;;;;;;;;;5004900;28;20025;-67
2023/11/07 06:30:15;;;;;;;15.73;6.53;;;;;;;;;;5017714;28;20480;-66
2023/11/07 06:32:40;;;;;;;17.33;7.13;;;;;;;;;;5022464;28;20016;-69
2023/11/07 06:35:05;;;;;;;13.73;7.00;;;;;;;;;;5019330;28;20025;-69
2023/11/07 06:37:33;;;;;;;14.03;7.50;;;;;;;;;;5022055;28;20021;-68
2023/11/07 06:40:00;;;;;;;15.17;7.43;;;;;;;;;;5019212;28;20021;-70
2023/11/07 06:42:25;;;;;;;15.93;8.30;;;;;;;;;;5022374;28;20097;-68
2023/11/07 06:44:51;;;;;;;14.37;8.00;;;;;;;;;;5018624;28;20117;-69
2023/11/07 06:47:16;;;;;;;20.20;8.87;;;;;;;;;;5024192;28;20021;-67
2023/11/07 06:49:42;;;;;;;17.93;8.17;;;;;;;;;;5020259;28;20482;-67
2023/11/07 06:52:07;;;;;;;20.47;8.30;;;;;;;;;;5023067;28;20474;-69
2023/11/07 06:54:32;;;;;;;14.30;8.63;;;;;;;;;;5020901;28;20530;-68
2023/11/07 06:56:57;;;;;;;15.50;8.17;;;;;;;;;;5022052;28;20462;-67
2023/11/07 06:59:23;;;;;;;15.70;7.90;;;;;;;;;;5022945;28;20018;-68
2023/11/07 07:01:48;;;;;;;15.53;7.90;;;;;;;;;;5018237;28;20030;-68
2023/11/07 07:04:13;;;;;;;10.80;7.00;;;;;;;;;;5025613;28;20540;-69
2023/11/07 07:06:39;;;;;;;20.43;8.17;;;;;;;;;;5038791;28;20084;-67
2023/11/07 07:09:05;;;;;;;13.60;7.63;;;;;;;;;;5033442;28;20419;-66
2023/11/07 07:11:30;;;;;;;17.13;8.30;;;;;;;;;;5041144;28;20042;-69
2023/11/07 07:13:55;;;;;;;11.53;7.60;;;;;;;;;;5038776;28;20020;-69
2023/11/07 07:16:23;;;;;;;15.60;8.30;;;;;;;;;;5036361;28;20032;-69
2023/11/07 07:18:49;;;;;;;12.13;7.30;;;;;;;;;;5029999;28;20041;-68
2023/11/07 07:21:15;;;;;;;14.47;8.33;;;;;;;;;;5043133;28;20532;-66
2023/11/07 07:23:46;;;;;;;16.23;7.60;;;;;;;;;;5042424;28;20154;-66
2023/11/07 07:26:12;;;;;;;14.32;8.02;;;;;;;;;;5036572;28;20024;-69
2023/11/07 07:28:38;;;;;;;16.27;8.47;;;;;;;;;;5026924;28;20032;-64
2023/11/07 07:31:06;;;;;;;17.13;8.03;;;;;;;;;;5036111;28;20036;-69
2023/11/07 07:33:32;;;;;;;15.10;7.67;;;;;;;;;;5040993;28;20017;-68
2023/11/07 07:36:02;;;;;;;14.57;7.63;;;;;;;;;;5039243;28;20118;-68
2023/11/07 07:38:30;;;;;;;12.87;7.73;;;;;;;;;;5036434;28;20017;-67
2023/11/07 07:40:57;;;;;;;14.73;8.10;;;;;;;;;;5039902;28;20076;-68
2023/11/07 07:43:22;;;;;;;13.33;8.17;;;;;;;;;;5041118;28;20021;-69
2023/11/07 07:45:47;;;;;;;14.63;7.30;;;;;;;;;;5037464;28;20473;-68
2023/11/07 07:48:13;;;;;;;12.63;8.03;;;;;;;;;;5038413;28;20017;-67
2023/11/07 07:50:46;;;;;;;14.50;7.97;;;;;;;;;;5041633;28;20017;-67
2023/11/07 07:53:14;;;;;;;14.13;8.30;;;;;;;;;;5037015;28;20444;-68
2023/11/07 07:55:43;;;;;;;13.33;7.60;;;;;;;;;;5041331;28;20033;-65
2023/11/07 07:58:08;;;;;;;18.53;9.00;;;;;;;;;;5035026;28;20471;-68
2023/11/07 08:00:37;;;;;;;12.43;8.17;;;;;;;;;;5031463;28;20326;-68
2023/11/07 08:03:06;;;;;;;17.37;8.63;;;;;;;;;;5037210;28;20029;-68
2023/11/07 08:05:32;;;;;;;13.23;8.20;;;;;;;;;;5033842;28;20466;-69
2023/11/07 08:07:57;;;;;;;13.53;7.87;;;;;;;;;;5040192;28;20286;-69
2023/11/07 08:10:26;;;;;;;15.67;7.90;;;;;;;;;;5038663;28;20119;-67
2023/11/07 08:12:51;;;;;;;17.30;8.80;;;;;;;;;;5036295;28;20042;-69
2023/11/07 08:15:17;;;;;;;12.80;7.63;;;;;;;;;;5034707;28;20061;-66
2023/11/07 08:17:43;;;;;;;13.43;8.27;;;;;;;;;;5039587;28;20025;-66
2023/11/07 08:20:14;;;;;;;14.90;8.97;;;;;;;;;;5044533;28;20045;-69
2023/11/07 08:22:42;;;;;;;14.35;9.02;;;;;;;;;;5044533;28;20503;-72
2023/11/07 08:25:10;;;;;;;15.73;8.77;;;;;;;;;;5037171;28;20104;-70
2023/11/07 08:27:35;;;;;;;16.93;10.37;;;;;;;;;;5037046;28;20013;-69
2023/11/07 08:30:01;;;;;;;14.80;8.93;;;;;;;;;;5035242;28;20531;-69
2023/11/07 08:32:29;;;;;;;16.83;10.03;;;;;;;;;;5045755;28;20021;-67
2023/11/07 08:34:55;;;;;;;17.37;9.90;;;;;;;;;;5039671;28;20017;-69
2023/11/07 08:37:20;;;;;;;19.60;9.00;;;;;;;;;;5037533;28;20477;-69
2023/11/07 08:39:46;;;;;;;17.20;7.83;;;;;;;;;;5041840;28;20028;-64
2023/11/07 08:42:11;;;;;;;14.03;7.50;;;;;;;;;;5044923;28;20017;-67
2023/11/07 08:44:36;;;;;;;17.73;8.70;;;;;;;;;;5042828;28;20075;-64
2023/11/07 08:47:02;;;;;;;15.40;8.30;;;;;;;;;;5042615;28;20025;-65
2023/11/07 08:49:27;;;;;;;14.17;7.87;;;;;;;;;;5042806;28;20020;-68
2023/11/07 08:51:52;;;;;;;12.20;7.20;;;;;;;;;;5041202;28;20063;-67
2023/11/07 08:54:21;;;;;;;14.90;7.33;;;;;;;;;;5042768;28;20392;-67
2023/11/07 08:56:50;;;;;;;12.17;6.63;;;;;;;;;;5040098;28;20441;-69
2023/11/07 08:59:16;;;;;;;14.63;6.07;;;;;;;;;;5043863;28;20017;-68
2023/11/07 09:01:41;;;;;;;11.47;6.00;;;;;;;;;;5032873;28;20028;-66
2023/11/07 09:04:09;;;;;;;11.50;5.80;;;;;;;;;;5039884;28;20056;-68
2023/11/07 09:06:36;;;;;;;7.33;4.23;;;;;;;;;;5042237;28;20382;-66
2023/11/07 09:09:02;;;;;;;11.83;5.13;;;;;;;;;;5038140;28;20700;-68
2023/11/07 09:11:27;;;;;;;7.10;4.07;;;;;;;;;;5040836;28;20025;-68
2023/11/07 09:13:52;;;;;;;10.53;3.97;;;;;;;;;;5036200;28;20012;-66
2023/11/07 09:16:17;;;;;;;8.80;4.00;;;;;;;;;;5041646;28;20009;-66
2023/11/07 09:18:43;;;;;;;10.97;3.80;;;;;;;;;;5040076;28;20103;-67
2023/11/07 09:21:08;;;;;;;9.37;4.00;;;;;;;;;;5039669;28;20013;-66
2023/11/07 09:23:35;;;;;;;7.07;3.77;;;;;;;;;;5035563;28;20013;-66
2023/11/07 09:26:02;;;;;;;8.33;3.80;;;;;;;;;;5031733;28;20017;-68
2023/11/07 09:28:28;;;;;;;8.80;3.70;;;;;;;;;;5040441;28;20241;-67
2023/11/07 09:30:53;;;;;;;6.70;3.40;;;;;;;;;;5043627;28;20028;-66
2023/11/07 09:33:19;;;;;;;10.80;3.53;;;;;;;;;;5038305;28;20474;-68
2023/11/07 09:35:44;;;;;;;12.23;3.33;;;;;;;;;;5034891;28;20021;-66
2023/11/07 09:38:11;;;;;;;9.00;2.90;;;;;;;;;;5037354;28;20425;-67
2023/11/07 09:40:36;;;;;;;6.13;2.67;;;;;;;;;;5045269;28;20021;-68
2023/11/07 09:43:02;;;;;;;7.57;3.10;;;;;;;;;;5043987;28;20028;-68
2023/11/07 09:45:34;;;;;;;10.10;3.00;;;;;;;;;;5038929;28;20053;-67
2023/11/07 09:48:00;;;;;;;7.30;2.80;;;;;;;;;;5032018;28;20469;-64
2023/11/07 09:50:25;;;;;;;8.50;2.93;;;;;;;;;;5037990;28;20052;-65
2023/11/07 09:52:51;;;;;;;7.63;2.60;;;;;;;;;;5039966;28;20091;-68
2023/11/07 09:55:16;;;;;;;6.40;2.60;;;;;;;;;;5041745;28;20490;-66
2023/11/07 09:57:42;;;;;;;5.67;2.30;;;;;;;;;;5041129;28;20021;-68
2023/11/07 10:00:11;;;;;;;6.03;2.17;;;;;;;;;;5039150;28;20381;-65
2023/11/07 10:02:37;;;;;;;7.07;2.40;;;;;;;;;;5039039;28;20094;-66
2023/11/07 10:05:05;;;;;;;6.17;2.57;;;;;;;;;;5037473;28;20379;-66
2023/11/07 10:07:30;;;;;;;6.73;2.77;;;;;;;;;;5040303;28;20019;-64
2023/11/07 10:09:55;;;;;;;5.83;2.60;;;;;;;;;;5039614;28;20021;-64
2023/11/07 10:12:21;;;;;;;7.50;2.30;;;;;;;;;;5038304;28;20076;-67
2023/11/07 10:14:46;;;;;;;4.90;1.80;;;;;;;;;;5039180;28;20024;-68
2023/11/07 10:17:19;;;;;;;5.10;2.20;;;;;;;;;;5034043;28;20478;-66
2023/11/07 10:19:46;;;;;;;7.10;2.30;;;;;;;;;;5031468;28;20494;-65
2023/11/07 10:22:11;;;;;;;5.50;2.08;;;;;;;;;;5036354;28;20024;-68
2023/11/07 10:24:46;;;;;;;6.00;2.10;;;;;;;;;;5038005;28;20017;-68
2023/11/07 10:27:11;;;;;;;3.80;1.83;;;;;;;;;;5039878;28;20018;-66
2023/11/07 10:29:50;;;;;;;4.17;2.03;;;;;;;;;;5038348;28;20051;-68
2023/11/07 10:32:15;;;;;;;5.97;2.20;;;;;;;;;;5036170;28;20071;-66
2023/11/07 10:34:40;;;;;;;5.27;2.30;;;;;;;;;;5034487;28;20021;-67
2023/11/07 10:37:06;;;;;;;4.43;1.90;;;;;;;;;;5042908;28;20109;-65
2023/11/07 10:39:35;;;;;;;5.67;2.30;;;;;;;;;;5041413;28;20029;-67
2023/11/07 10:42:16;;;;;;;5.97;2.10;;;;;;;;;;5039161;28;20462;-66
2023/11/07 10:44:43;;;;;;;4.68;2.00;;;;;;;;;;5037994;28;20100;-67
2023/11/07 10:47:08;;;;;;;4.43;1.87;;;;;;;;;;5035430;28;20026;-68
2023/11/07 10:49:36;;;;;;;4.27;2.10;;;;;;;;;;5043332;28;20428;-68
2023/11/07 10:52:02;;;;;;;5.77;2.30;;;;;;;;;;5044193;28;20029;-65
2023/11/07 10:54:30;;;;;;;7.13;2.23;;;;;;;;;;5036965;28;20032;-65
2023/11/07 10:56:58;;;;;;;6.73;2.10;;;;;;;;;;5039014;28;20489;-65
2023/11/07 10:59:24;;;;;;;7.10;2.20;;;;;;;;;;5034188;28;20014;-68
2023/11/07 11:01:52;;;;;;;5.60;1.77;;;;;;;;;;5040010;28;20058;-67
2023/11/07 11:04:22;;;;;;;4.57;2.10;;;;;;;;;;5040956;28;20170;-65
2023/11/07 11:06:54;;;;;;;4.50;1.93;;;;;;;;;;5042738;28;20378;-68
2023/11/07 11:09:20;;;;;;;8.30;1.67;;;;;;;;;;5039736;28;20020;-66
2023/11/07 11:11:50;;;;;;;7.13;1.90;;;;;;;;;;5026104;28;20029;-65
2023/11/07 11:14:16;;;;;;;5.77;2.30;;;;;;;;;;5034836;28;20103;-65
2023/11/07 11:16:43;;;;;;;3.57;1.50;;;;;;;;;;5039824;28;20563;-66
2023/11/07 11:19:28;;;;;;;4.20;1.50;;;;;;;;;;5036704;28;20146;-65
2023/11/07 11:21:54;;;;;;;3.13;1.43;;;;;;;;;;5036088;28;20052;-66
2023/11/07 11:24:29;;;;;;;5.37;1.70;;;;;;;;;;5036411;28;20180;-66
2023/11/07 11:26:58;;;;;;;3.33;1.27;;;;;;;;;;5037877;28;20028;-67
2023/11/07 11:29:27;;;;;;;4.77;1.90;;;;;;;;;;5034985;28;20276;-67
2023/11/07 11:31:53;;;;;;;5.43;1.57;;;;;;;;;;5034028;28;20021;-65
2023/11/07 11:34:25;;;;;;;3.92;1.50;;;;;;;;;;5037661;28;20028;-64
2023/11/07 11:36:58;;;;;;;5.37;1.53;;;;;;;;;;5037677;28;20460;-64
2023/11/07 11:39:26;;;;;;;5.23;1.50;;;;;;;;;;5038236;28;20048;-67
2023/11/07 11:41:58;;;;;;;3.78;1.65;;;;;;;;;;5034252;28;20385;-65
2023/11/07 11:44:24;;;;;;;4.10;1.50;;;;;;;;;;5041699;28;20377;-61
2023/11/07 11:46:50;;;;;;;3.77;1.60;;;;;;;;;;5042017;28;20024;-65
2023/11/07 11:49:21;;;;;;;4.45;1.80;;;;;;;;;;5044626;28;20028;-61
2023/11/07 11:51:48;;;;;;;5.55;1.92;;;;;;;;;;5040269;28;20025;-62
2023/11/07 11:54:13;;;;;;;5.03;1.90;;;;;;;;;;5042116;28;20479;-64
2023/11/07 11:56:51;;;;;;;6.80;1.87;;;;;;;;;;5038370;28;20100;-65
2023/11/07 11:59:16;;;;;;;4.65;1.90;;;;;;;;;;5045899;28;20016;-61
2023/11/07 12:01:52;;;;;;;5.30;2.05;;;;;;;;;;5044392;28;20048;-65
2023/11/07 12:04:26;;;;;;;6.05;1.95;;;;;;;;;;5041501;28;20460;-63
2023/11/07 12:07:09;;;;;;;7.22;2.70;;;;;;;;;;5042572;28;20036;-62
2023/11/07 12:09:35;;;;;;;10.07;3.50;;;;;;;;;;5039385;28;20494;-66
2023/11/07 12:12:00;;;;;;;4.95;2.15;;;;;;;;;;5042820;28;20029;-65
2023/11/07 12:14:26;;;;;;;4.30;2.00;;;;;;;;;;5045932;28;20017;-63
2023/11/07 12:16:59;;;;;;;7.57;1.80;;;;;;;;;;5043286;28;20112;-66
2023/11/07 12:19:24;;;;;;;4.93;1.90;;;;;;;;;;5042108;28;20047;-61
2023/11/07 12:21:50;;;;;;;4.97;1.60;;;;;;;;;;5038302;28;20049;-63
2023/11/07 12:24:17;;;;;;;5.27;2.43;;;;;;;;;;5035761;28;20544;-66
2023/11/07 12:26:43;;;;;;;6.63;2.30;;;;;;;;;;5042799;28;20050;-64
2023/11/07 12:29:09;;;;;;;6.93;2.53;;;;;;;;;;5040613;28;20021;-61
2023/11/07 12:31:38;;;;;;;6.90;2.47;;;;;;;;;;5040535;28;20017;-65
2023/11/07 12:34:04;;;;;;;7.20;2.13;;;;;;;;;;5037494;28;20082;-61
2023/11/07 12:36:29;;;;;;;4.93;2.00;;;;;;;;;;5041162;28;20021;-64
2023/11/07 12:38:55;;;;;;;5.17;2.10;;;;;;;;;;5040064;28;20044;-65
2023/11/07 12:41:20;;;;;;;7.50;2.63;;;;;;;;;;5035686;28;20014;-65
2023/11/07 12:43:45;;;;;;;6.77;2.53;;;;;;;;;;5044687;28;20150;-64
2023/11/07 12:46:13;;;;;;;6.07;2.20;;;;;;;;;;5040388;28;20025;-61
2023/11/07 12:48:38;;;;;;;5.53;2.13;;;;;;;;;;5040882;28;20025;-64
2023/11/07 12:51:08;;;;;;;5.20;1.73;;;;;;;;;;5041142;28;20025;-61
2023/11/07 12:53:33;;;;;;;7.23;2.20;;;;;;;;;;5045379;28;20103;-64
2023/11/07 12:55:59;;;;;;;8.00;1.80;;;;;;;;;;5044448;28;20044;-67
2023/11/07 12:58:29;;;;;;;5.47;1.70;;;;;;;;;;5043489;28;20476;-66
2023/11/07 13:01:04;;;;;;;4.55;1.80;;;;;;;;;;5041937;28;20554;-66
2023/11/07 13:03:31;;;;;;;4.28;1.63;;;;;;;;;;5042100;28;20305;-65
2023/11/07 13:05:59;;;;;;;2.60;1.30;;;;;;;;;;5037115;28;20032;-65
2023/11/07 13:08:27;;;;;;;3.27;1.50;;;;;;;;;;5042902;28;20539;-68
2023/11/07 13:10:52;;;;;;;3.83;1.67;;;;;;;;;;5043766;28;20512;-66
2023/11/07 13:13:17;;;;;;;4.33;1.70;;;;;;;;;;5041799;28;20025;-67
2023/11/07 13:15:43;;;;;;;4.73;1.57;;;;;;;;;;5042970;28;20032;-66
2023/11/07 13:18:13;;;;;;;4.97;1.60;;;;;;;;;;5033907;28;20735;-68
2023/11/07 13:20:38;;;;;;;3.70;1.43;;;;;;;;;;5038140;28;20072;-68
2023/11/07 13:23:03;;;;;;;4.10;1.50;;;;;;;;;;5045089;28;20024;-64
2023/11/07 13:25:28;;;;;;;4.33;1.67;;;;;;;;;;5044351;28;20017;-66
2023/11/07 13:27:56;;;;;;;8.00;3.33;;;;;;;;;;5041203;28;20017;-65
2023/11/07 13:30:21;;;;;;;6.00;2.50;;;;;;;;;;5034508;28;20099;-69
2023/11/07 13:32:47;;;;;;;4.43;1.60;;;;;;;;;;5035270;28;20111;-69
2023/11/07 13:35:13;;;;;;;4.73;1.67;;;;;;;;;;5041140;28;20039;-66
2023/11/07 13:37:38;;;;;;;6.03;2.10;;;;;;;;;;5038453;28;20013;-67
2023/11/07 13:40:09;;;;;;;5.10;2.00;;;;;;;;;;5039616;28;20376;-68
2023/11/07 13:42:34;;;;;;;4.68;1.80;;;;;;;;;;5039385;28;20017;-65
2023/11/07 13:44:59;;;;;;;7.30;2.00;;;;;;;;;;5037229;28;20603;-68
2023/11/07 13:47:25;;;;;;;5.63;2.40;;;;;;;;;;5040859;28;20421;-68
2023/11/07 13:49:50;;;;;;;6.77;1.67;;;;;;;;;;5040776;28;20392;-68
2023/11/07 13:52:17;;;;;;;6.77;1.80;;;;;;;;;;5042579;28;20429;-68
2023/11/07 13:54:42;;;;;;;4.40;1.83;;;;;;;;;;5042215;28;20108;-68
2023/11/07 13:57:08;;;;;;;6.57;2.00;;;;;;;;;;5041181;28;20103;-68
2023/11/07 13:59:33;;;;;;;7.23;2.10;;;;;;;;;;5039992;28;20022;-66
2023/11/07 14:01:58;;;;;;;7.03;2.07;;;;;;;;;;5040542;28;20035;-68
2023/11/07 14:04:23;;;;;;;5.03;1.70;;;;;;;;;;5042715;28;20429;-68
2023/11/07 14:06:49;;;;;;;5.37;1.80;;;;;;;;;;5041997;28;20402;-63
2023/11/07 14:09:14;;;;;;;5.73;2.37;;;;;;;;;;5041552;28;20102;-65
2023/11/07 14:11:39;;;;;;;6.30;1.80;;;;;;;;;;5042460;28;20013;-61
2023/11/07 14:14:06;;;;;;;7.37;1.97;;;;;;;;;;5040081;28;20734;-65
2023/11/07 14:16:32;;;;;;;7.10;2.10;;;;;;;;;;5033964;28;20098;-62
2023/11/07 14:18:58;;;;;;;7.57;2.20;;;;;;;;;;5042588;28;20013;-65
2023/11/07 14:21:23;;;;;;;6.83;2.30;;;;;;;;;;5040577;28;20025;-65
2023/11/07 14:23:48;;;;;;;13.63;6.57;;;;;;;;;;5044236;28;20052;-64
2023/11/07 14:26:14;;;;;;;12.10;6.13;;;;;;;;;;5041743;28;20045;-65
2023/11/07 14:28:40;;;;;;;14.37;6.70;;;;;;;;;;5035189;28;20408;-66
2023/11/07 14:31:08;;;;;;;9.43;2.90;;;;;;;;;;5038152;28;20104;-61